Aviation Digital Data Service (ADDS)

Output produced by METARs form (0508 UTC 20 September 2020)
found at http://aviationweather.gov/metar/data/
 
Forecast for: KMTN (BALTIMORE/MARTIN, MD, US)
Text: KMTN 192322Z 2000/2024 VRB03KT P6SM SKC
Forecast period: 0000 to 1500 UTC 20 September 2020
Forecast type: FROM: standard forecast or significant change
Winds: variable direction winds at 3 MPH (3 knots; 1.5 m/s)
Visibility: 6 or more miles (10+ km)
Clouds: clear skies
Weather: no significant weather forecast for this period
Text: FM201500 04009KT P6SM SKC AMD NOT SKED 2002/2012
Forecast period: 1500 UTC 20 September 2020 to 0000 UTC 21 September 2020
Forecast type: FROM: standard forecast or significant change
Winds: from the NE (40 degrees) at 10 MPH (9 knots; 4.6 m/s)
Visibility: 6 or more miles (10+ km)
Clouds: clear skies
Weather: no significant weather forecast for this period